KSTK

Sterling Municipal Airport

Sterling, Colorado, USA
METAR KSTK 220210Z AUTO 03006KT 10SM CLR 21/14 A2993 RMK AO2
Observed Flight Rules
May-22 @ 02:10 UTC (30 minutes ago) Visual Flight Rules
Wind Visibility Clouds
30° at 6 knots 10 miles
  • Clear skies
Temperatures Readings
Current 21°C / 70°F
Dewpoint 14°C / 57°F
Humidity 64%
Altimeter 29.93" Hg
Pressure 1014 hPa
Elevation 1231
METAR KSTK 220210Z AUTO 03006KT 10SM CLR 21/14 A2993 RMK AO2
Observed Flight Rules
May-22 @ 02:10 UTC
(30 minutes ago)
VFR
Wind Visibility
30° at 6 knots 10 miles
Clouds
  • Clear skies
Temperature Dewpoint
21°C / 70°F 14°C / 57°F
Humidity Altimeter Pressure
64% 29.93" Hg 1014 hPa